Time;durP1;ratioP1;P1;durP2;ratioP2;P2;SDS_P1;SDS_P2;PMS_P1;PMS_P2;Temp;Humidity;BMP_temperature;BMP_pressure;BME280_temperature;BME280_humidity;BME280_pressure;Samples;Min_cycle;Max_cycle;Signal;HPM_P1;HPM_P2
2021/05/02 00:00:10;;;;;;;29.10;19.50;;;10.70;99.90;;;;;;4771982;30;20186;-80
2021/05/02 00:02:36;;;;;;;30.87;18.80;;;10.60;99.90;;;;;;4771926;30;20247;-81
2021/05/02 00:05:06;;;;;;;32.10;19.05;;;10.60;99.90;;;;;;4771772;30;20194;-81
2021/05/02 00:07:32;;;;;;;27.50;18.30;;;10.50;99.90;;;;;;4770250;30;20194;-81
2021/05/02 00:09:59;;;;;;;27.77;18.43;;;10.50;99.90;;;;;;4755914;30;20544;-81
2021/05/02 00:12:26;;;;;;;27.93;17.67;;;9.70;99.90;;;;;;4771758;30;20242;-80
2021/05/02 00:14:52;;;;;;;27.87;17.60;;;;;;;;;;4771312;30;20208;-80
2021/05/02 00:17:18;;;;;;;27.10;18.50;;;;;;;;;;4771301;30;20660;-80
2021/05/02 00:19:45;;;;;;;27.53;17.20;;;;;;;;;;4771132;30;20186;-86
2021/05/02 00:22:11;;;;;;;30.07;17.87;;;10.20;99.90;;;;;;4772106;30;20668;-80
2021/05/02 00:24:38;;;;;;;27.50;17.87;;;10.70;99.90;;;;;;4771409;30;20598;-80
2021/05/02 00:27:04;;;;;;;29.03;18.37;;;10.30;99.90;;;;;;4771568;30;20273;-80
2021/05/02 00:29:30;;;;;;;26.47;17.33;;;10.50;99.90;;;;;;4771624;30;20190;-80
2021/05/02 00:31:57;;;;;;;27.83;17.63;;;10.40;99.90;;;;;;4770006;30;20641;-81
2021/05/02 00:34:24;;;;;;;26.73;17.47;;;10.40;99.90;;;;;;4771321;30;20217;-80
2021/05/02 00:36:50;;;;;;;30.50;17.77;;;10.40;99.90;;;;;;4769840;30;20636;-79
2021/05/02 00:39:16;;;;;;;24.27;16.73;;;;;;;;;;4771111;30;20747;-80
2021/05/02 00:41:45;;;;;;;29.00;18.17;;;10.20;99.90;;;;;;4769861;30;20289;-79
2021/05/02 00:44:26;;;;;;;28.38;18.35;;;10.50;99.90;;;;;;4770817;30;20190;-79
2021/05/02 00:47:13;;;;;;;27.33;17.77;;;10.40;99.90;;;;;;4771088;30;20190;-79
2021/05/02 00:49:49;;;;;;;28.63;17.93;;;10.20;99.90;;;;;;4771306;30;20698;-79
2021/05/02 00:52:33;;;;;;;32.10;18.00;;;10.40;99.90;;;;;;4770873;30;20234;-79
2021/05/02 00:55:08;;;;;;;30.03;17.60;;;10.00;99.90;;;;;;4769445;30;20607;-79
2021/05/02 00:58:03;;;;;;;26.37;17.57;;;10.70;99.90;;;;;;4770995;30;20182;-79
2021/05/02 01:00:35;;;;;;;29.57;18.77;;;10.40;99.90;;;;;;4771198;30;20182;-79
2021/05/02 01:03:05;;;;;;;25.37;17.87;;;10.40;99.90;;;;;;4770317;30;20255;-80
2021/05/02 01:05:33;;;;;;;25.47;17.67;;;10.40;99.90;;;;;;4770830;30;20205;-80
2021/05/02 01:08:04;;;;;;;26.47;18.07;;;10.10;99.90;;;;;;4770464;30;20174;-80
2021/05/02 01:10:31;;;;;;;25.20;17.80;;;10.20;99.90;;;;;;4769390;30;20182;-81
2021/05/02 01:12:59;;;;;;;29.10;18.37;;;10.70;99.90;;;;;;4770255;30;20333;-80
2021/05/02 01:15:33;;;;;;;28.57;18.13;;;10.50;99.90;;;;;;4770649;30;20186;-80
2021/05/02 01:18:02;;;;;;;30.17;18.33;;;10.20;99.90;;;;;;4770023;30;20213;-80
2021/05/02 01:20:29;;;;;;;28.27;17.80;;;10.40;99.90;;;;;;4769708;30;20186;-80
2021/05/02 01:23:06;;;;;;;26.30;18.17;;;10.30;99.90;;;;;;4770707;30;20190;-80
2021/05/02 01:25:32;;;;;;;26.60;16.30;;;;;;;;;;4770468;30;20238;-80
2021/05/02 01:27:59;;;;;;;25.40;16.90;;;10.10;99.90;;;;;;4770454;30;20191;-81
2021/05/02 01:30:26;;;;;;;22.07;15.70;;;10.20;99.90;;;;;;4770870;30;20194;-81
2021/05/02 01:32:52;;;;;;;25.07;16.47;;;10.20;99.90;;;;;;4770341;30;20221;-81
2021/05/02 01:35:19;;;;;;;25.93;17.47;;;10.20;99.90;;;;;;4770236;30;20186;-81
2021/05/02 01:37:47;;;;;;;24.17;16.20;;;10.30;99.90;;;;;;4770393;30;20189;-81
2021/05/02 01:40:13;;;;;;;23.63;16.23;;;10.50;99.90;;;;;;4770222;30;20193;-81
2021/05/02 01:42:39;;;;;;;24.70;16.57;;;;;;;;;;4770411;30;20200;-80
2021/05/02 01:45:07;;;;;;;25.07;15.73;;;10.30;99.90;;;;;;4769954;30;20182;-80
2021/05/02 01:47:39;;;;;;;25.83;16.33;;;10.20;99.90;;;;;;4770231;30;20362;-80
2021/05/02 01:50:07;;;;;;;24.53;16.87;;;10.40;99.90;;;;;;4769980;30;20716;-81
2021/05/02 01:52:39;;;;;;;26.17;15.57;;;10.10;99.90;;;;;;4770008;30;20281;-81
2021/05/02 01:55:06;;;;;;;21.83;15.80;;;10.20;99.90;;;;;;4768753;30;20586;-81
2021/05/02 01:57:33;;;;;;;24.13;15.67;;;10.10;99.90;;;;;;4769188;30;20204;-81
2021/05/02 02:00:10;;;;;;;23.87;16.13;;;10.00;99.90;;;;;;4769894;30;20194;-81
2021/05/02 02:02:37;;;;;;;25.43;15.83;;;10.20;99.90;;;;;;4770331;30;20231;-81
2021/05/02 02:05:04;;;;;;;27.13;16.80;;;10.10;99.90;;;;;;4770055;30;20189;-81
2021/05/02 02:07:31;;;;;;;24.70;15.80;;;10.20;99.90;;;;;;4770233;30;20185;-80
2021/05/02 02:09:57;;;;;;;25.40;16.23;;;10.40;99.90;;;;;;4770190;30;20189;-81
2021/05/02 02:12:24;;;;;;;22.80;15.93;;;10.20;99.90;;;;;;4769116;30;20245;-81
2021/05/02 02:14:51;;;;;;;24.27;16.43;;;10.20;99.90;;;;;;4770235;30;20243;-81
2021/05/02 02:17:19;;;;;;;22.90;15.80;;;9.90;99.90;;;;;;4769962;30;20186;-81
2021/05/02 02:19:45;;;;;;;26.50;15.57;;;10.40;99.90;;;;;;4769898;30;20197;-80
2021/05/02 02:22:14;;;;;;;24.40;16.23;;;10.20;99.90;;;;;;4769678;30;20193;-80
2021/05/02 02:24:58;;;;;;;24.03;14.90;;;10.20;99.90;;;;;;4770298;30;20190;-81
2021/05/02 02:27:32;;;;;;;22.30;15.47;;;10.50;99.90;;;;;;4770012;30;20263;-81
2021/05/02 02:30:09;;;;;;;21.03;15.93;;;10.10;99.90;;;;;;4772229;30;20181;-81
2021/05/02 02:32:42;;;;;;;21.77;15.60;;;10.10;99.90;;;;;;4773577;30;20209;-81
2021/05/02 02:35:09;;;;;;;23.53;15.30;;;10.40;99.90;;;;;;4773184;30;20653;-81
2021/05/02 02:37:37;;;;;;;24.37;16.43;;;10.10;99.90;;;;;;4773640;30;20184;-81
2021/05/02 02:40:06;;;;;;;23.73;15.63;;;10.10;99.90;;;;;;4773057;30;20190;-82
2021/05/02 02:42:35;;;;;;;27.00;15.73;;;10.00;99.90;;;;;;4772354;30;20208;-81
2021/05/02 02:45:07;;;;;;;23.57;16.00;;;10.00;99.90;;;;;;4773406;30;20641;-90
2021/05/02 02:47:38;;;;;;;28.03;16.67;;;9.90;99.90;;;;;;4773540;30;20185;-81
2021/05/02 02:50:10;;;;;;;23.17;15.93;;;9.50;99.90;;;;;;4773228;30;20181;-81
2021/05/02 02:52:50;;;;;;;25.20;16.23;;;9.90;99.90;;;;;;4772886;30;20218;-80
2021/05/02 02:55:18;;;;;;;23.57;15.83;;;9.80;99.90;;;;;;4773164;30;20178;-81
2021/05/02 02:58:04;;;;;;;24.73;16.43;;;9.90;99.90;;;;;;4772276;30;20194;-81
2021/05/02 03:00:32;;;;;;;23.17;17.07;;;10.10;99.90;;;;;;4773389;30;20181;-80
2021/05/02 03:03:07;;;;;;;25.90;16.47;;;9.70;99.90;;;;;;4773166;30;20272;-81
2021/05/02 03:05:35;;;;;;;26.40;16.77;;;9.70;99.90;;;;;;4773267;30;20182;-81
2021/05/02 03:08:03;;;;;;;27.57;16.57;;;9.70;99.90;;;;;;4773441;30;20194;-81
2021/05/02 03:10:29;;;;;;;24.47;17.47;;;;;;;;;;4772781;30;20186;-81
2021/05/02 03:12:57;;;;;;;28.67;16.23;;;9.60;99.90;;;;;;4772911;30;20680;-81
2021/05/02 03:15:23;;;;;;;27.93;17.07;;;;;;;;;;4771531;30;20753;-81
2021/05/02 03:17:56;;;;;;;26.83;16.77;;;9.50;99.90;;;;;;4771902;30;20304;-81
2021/05/02 03:20:27;;;;;;;24.90;16.90;;;9.50;99.90;;;;;;4772712;30;20178;-80
2021/05/02 03:22:57;;;;;;;25.03;16.17;;;9.50;99.90;;;;;;4772966;30;20182;-80
2021/05/02 03:25:24;;;;;;;24.50;16.43;;;9.50;99.90;;;;;;4771344;30;20190;-81
2021/05/02 03:27:56;;;;;;;27.10;17.87;;;9.50;99.90;;;;;;4771404;30;20214;-80
2021/05/02 03:30:23;;;;;;;25.50;16.30;;;9.50;99.90;;;;;;4772517;30;20181;-80
2021/05/02 03:32:52;;;;;;;26.50;18.13;;;9.50;99.90;;;;;;4772605;30;20214;-80
2021/05/02 03:35:19;;;;;;;25.07;16.90;;;9.50;99.90;;;;;;4772179;30;20200;-81
2021/05/02 03:37:54;;;;;;;24.43;17.43;;;9.60;99.90;;;;;;4772595;30;20277;-80
2021/05/02 03:40:20;;;;;;;26.07;17.10;;;;;;;;;;4771978;30;20177;-80
2021/05/02 03:42:46;;;;;;;23.47;15.90;;;;;;;;;;4772591;30;20198;-80
2021/05/02 03:45:12;;;;;;;23.87;17.87;;;;;;;;;;4772267;30;20261;-81
2021/05/02 03:47:38;;;;;;;24.77;16.77;;;9.60;99.90;;;;;;4772413;30;20190;-80
2021/05/02 03:50:04;;;;;;;24.43;17.50;;;9.60;99.90;;;;;;4756812;30;20186;-80
2021/05/02 03:52:31;;;;;;;22.77;15.90;;;;;;;;;;4772105;30;20229;-80
2021/05/02 03:54:57;;;;;;;21.53;15.97;;;;;;;;;;4772455;30;20641;-80
2021/05/02 03:57:23;;;;;;;24.70;15.80;;;9.60;99.90;;;;;;4772033;30;20243;-80
2021/05/02 03:59:49;;;;;;;25.23;16.90;;;9.70;99.90;;;;;;4785982;29;20194;-80
2021/05/02 04:02:15;;;;;;;23.03;16.40;;;;;;;;;;4772027;30;20266;-81
2021/05/02 04:04:42;;;;;;;23.50;16.23;;;;;;;;;;4772208;30;20226;-79
2021/05/02 04:07:10;;;;;;;25.77;15.53;;;9.80;99.90;;;;;;4772152;30;20268;-79
2021/05/02 04:09:37;;;;;;;22.50;16.17;;;9.80;99.90;;;;;;4771914;30;20273;-79
2021/05/02 04:12:04;;;;;;;22.40;16.20;;;9.60;99.90;;;;;;4771555;30;20263;-79
2021/05/02 04:14:30;;;;;;;22.47;15.90;;;;;;;;;;4771489;29;20652;-80
2021/05/02 04:17:15;;;;;;;20.67;15.23;;;9.90;99.90;;;;;;4770705;30;20281;-79
2021/05/02 04:19:44;;;;;;;21.73;14.63;;;9.90;99.90;;;;;;4771969;30;20181;-80
2021/05/02 04:22:16;;;;;;;21.83;15.23;;;9.90;99.90;;;;;;4771831;30;20624;-80
2021/05/02 04:24:43;;;;;;;23.00;15.50;;;10.00;99.90;;;;;;4771374;30;20537;-80
2021/05/02 04:27:09;;;;;;;23.90;15.13;;;10.30;99.90;;;;;;4755574;30;20650;-80
2021/05/02 04:29:35;;;;;;;21.80;14.80;;;;;;;;;;4766027;30;20305;-80
2021/05/02 04:32:02;;;;;;;17.70;13.23;;;;;;;;;;4760706;30;20238;-81
2021/05/02 04:34:28;;;;;;;22.60;14.57;;;;;;;;;;4760576;30;20189;-84
2021/05/02 04:36:56;;;;;;;18.50;13.60;;;9.70;99.90;;;;;;4762689;30;20198;-79
2021/05/02 04:39:22;;;;;;;21.77;14.30;;;10.00;99.90;;;;;;4772469;29;20253;-79
2021/05/02 04:41:49;;;;;;;19.77;14.40;;;10.10;99.90;;;;;;4764153;30;20201;-82
2021/05/02 04:44:15;;;;;;;20.60;13.67;;;10.10;99.90;;;;;;4766945;30;20204;-81
2021/05/02 04:46:41;;;;;;;19.83;13.77;;;9.80;99.90;;;;;;4765925;30;20285;-81
2021/05/02 04:49:08;;;;;;;21.67;13.17;;;10.10;99.90;;;;;;4765915;30;20612;-80
2021/05/02 04:51:35;;;;;;;20.53;14.10;;;9.90;99.90;;;;;;4762314;30;20221;-81
2021/05/02 04:54:01;;;;;;;22.47;13.30;;;10.10;99.90;;;;;;4759451;30;20193;-79
2021/05/02 04:56:27;;;;;;;18.50;13.63;;;;;;;;;;4766164;30;20193;-81
2021/05/02 04:58:53;;;;;;;21.43;13.67;;;;;;;;;;4769648;30;20217;-81
2021/05/02 05:01:19;;;;;;;18.53;13.07;;;10.10;99.90;;;;;;4782498;29;20699;-83
2021/05/02 05:03:45;;;;;;;19.80;13.90;;;10.30;99.90;;;;;;4767996;30;20228;-80
2021/05/02 05:06:12;;;;;;;20.60;14.10;;;10.30;99.90;;;;;;4766002;30;20213;-81
2021/05/02 05:08:40;;;;;;;21.33;13.97;;;10.00;99.90;;;;;;4766108;30;20193;-79
2021/05/02 05:11:06;;;;;;;20.10;13.70;;;10.30;99.90;;;;;;4768517;30;20253;-80
2021/05/02 05:13:33;;;;;;;20.50;14.23;;;10.40;99.90;;;;;;4768679;30;20220;-82
2021/05/02 05:16:00;;;;;;;18.73;13.23;;;10.20;99.90;;;;;;4779545;29;20191;-81
2021/05/02 05:18:27;;;;;;;21.03;14.20;;;10.80;99.90;;;;;;4760824;30;20269;-80
2021/05/02 05:20:54;;;;;;;19.17;13.20;;;10.50;99.90;;;;;;4755842;30;20305;-81
2021/05/02 05:23:21;;;;;;;22.33;13.27;;;;;;;;;;4768816;30;20234;-85
2021/05/02 05:25:47;;;;;;;19.83;13.83;;;;;;;;;;4766809;30;20656;-81
2021/05/02 05:28:13;;;;;;;17.43;13.23;;;11.30;99.90;;;;;;4762700;30;20194;-80
2021/05/02 05:30:39;;;;;;;19.10;13.80;;;;;;;;;;4765733;30;20198;-81
2021/05/02 05:33:06;;;;;;;18.27;13.57;;;11.00;99.90;;;;;;4768954;30;20300;-81
2021/05/02 05:35:33;;;;;;;20.03;13.83;;;11.20;99.90;;;;;;4768772;30;20206;-82
2021/05/02 05:37:59;;;;;;;20.17;13.80;;;11.20;99.90;;;;;;4761702;30;20198;-81
2021/05/02 05:40:27;;;;;;;25.50;16.70;;;10.00;99.90;;;;;;4763435;30;20540;-80
2021/05/02 05:42:53;;;;;;;18.57;13.30;;;11.10;99.90;;;;;;4765253;30;20577;-81
2021/05/02 05:45:19;;;;;;;23.07;14.57;;;;;;;;;;4767573;30;20704;-83
2021/05/02 05:47:46;;;;;;;19.10;14.03;;;11.30;99.90;;;;;;4759777;30;20680;-81
2021/05/02 05:50:14;;;;;;;17.97;14.00;;;11.20;99.90;;;;;;4767342;30;20297;-80
2021/05/02 05:52:41;;;;;;;22.42;14.63;;;11.20;99.90;;;;;;4764842;30;20236;-81
2021/05/02 05:55:07;;;;;;;19.00;14.70;;;;;;;;;;4767933;30;20284;-82
2021/05/02 05:57:33;;;;;;;22.70;16.17;;;11.60;99.90;;;;;;4761182;30;20223;-82
2021/05/02 05:59:59;;;;;;;26.13;18.40;;;11.60;99.90;;;;;;4757535;30;20205;-81
2021/05/02 06:02:25;;;;;;;24.97;18.30;;;;;;;;;;4764388;30;20210;-82
2021/05/02 06:04:51;;;;;;;24.97;18.10;;;11.20;99.90;;;;;;4754930;30;20255;-82
2021/05/02 06:07:17;;;;;;;29.63;17.85;;;11.70;99.90;;;;;;4762064;30;20202;-82
2021/05/02 06:09:43;;;;;;;22.50;16.10;;;;;;;;;;4759568;30;20214;-83
2021/05/02 06:12:09;;;;;;;22.83;15.25;;;11.80;99.90;;;;;;4757547;30;20256;-81
2021/05/02 06:14:35;;;;;;;21.53;15.20;;;;;;;;;;4756321;30;20199;-83
2021/05/02 06:17:01;;;;;;;17.75;12.80;;;;;;;;;;4756397;30;20241;-81
2021/05/02 06:19:28;;;;;;;20.52;14.63;;;;;;;;;;4751395;30;20198;-87
2021/05/02 06:21:53;;;;;;;21.23;14.67;;;11.90;99.90;;;;;;4764386;30;20208;-82
2021/05/02 06:24:19;;;;;;;21.52;14.23;;;;;;;;;;4763627;30;20190;-81
2021/05/02 06:26:45;;;;;;;19.30;13.32;;;12.00;99.90;;;;;;4762776;30;20197;-82
2021/05/02 06:29:11;;;;;;;18.17;13.73;;;;;;;;;;4770098;29;20279;-82
2021/05/02 06:31:40;;;;;;;21.98;14.02;;;12.00;99.90;;;;;;4759905;30;20206;-82
2021/05/02 06:34:06;;;;;;;26.20;15.35;;;;;;;;;;4762309;30;20190;-82
2021/05/02 06:36:31;;;;;;;24.77;17.15;;;12.40;99.90;;;;;;4757756;30;20199;-81
2021/05/02 06:38:57;;;;;;;23.23;16.75;;;;;;;;;;4764712;30;20205;-81
2021/05/02 06:41:24;;;;;;;26.10;17.77;;;;;;;;;;4776771;29;20201;-84
2021/05/02 06:43:50;;;;;;;24.88;16.75;;;;;;;;;;4749473;30;20307;-84
2021/05/02 06:46:28;;;;;;;23.00;15.07;;;12.70;99.90;;;;;;4755529;30;20198;-82
2021/05/02 06:49:15;;;;;;;18.23;14.27;;;12.40;99.90;;;;;;4754553;30;20679;-82
2021/05/02 06:51:41;;;;;;;18.60;13.70;;;12.50;99.90;;;;;;4775308;29;20190;-81
2021/05/02 06:54:07;;;;;;;22.35;14.55;;;12.80;99.90;;;;;;4760585;30;20194;-83
2021/05/02 06:56:34;;;;;;;24.27;16.00;;;12.90;99.90;;;;;;4760662;30;20214;-84
2021/05/02 06:58:59;;;;;;;20.08;15.25;;;12.90;99.90;;;;;;4767143;29;20688;-82
2021/05/02 07:01:26;;;;;;;24.10;14.70;;;13.10;99.90;;;;;;4762572;30;20206;-81
2021/05/02 07:03:52;;;;;;;21.65;15.65;;;;;;;;;;4760624;30;20236;-86
2021/05/02 07:06:18;;;;;;;19.85;15.52;;;13.50;99.90;;;;;;4762698;30;20190;-81
2021/05/02 07:08:44;;;;;;;19.98;13.88;;;;;;;;;;4766113;29;20612;-82
2021/05/02 07:11:10;;;;;;;22.23;15.48;;;;;;;;;;4767008;30;20253;-83
2021/05/02 07:13:36;;;;;;;19.67;15.10;;;13.10;99.90;;;;;;4766749;30;20206;-80
2021/05/02 07:16:02;;;;;;;20.55;15.88;;;13.20;99.90;;;;;;4769541;30;20221;-82
2021/05/02 07:18:36;;;;;;;20.05;15.15;;;13.20;99.90;;;;;;4771787;29;20553;-81
2021/05/02 07:21:03;;;;;;;19.35;14.18;;;13.00;99.90;;;;;;4769511;30;20206;-83
2021/05/02 07:23:29;;;;;;;22.10;14.57;;;;;;;;;;4769119;29;20201;-82
2021/05/02 07:25:55;;;;;;;19.67;14.38;;;;;;;;;;4770285;30;20198;-83
2021/05/02 07:28:21;;;;;;;18.42;13.77;;;;;;;;;;4764504;30;20194;-83
2021/05/02 07:30:48;;;;;;;20.67;13.75;;;13.30;99.90;;;;;;4768647;30;20194;-82
2021/05/02 07:33:14;;;;;;;16.85;13.13;;;13.70;99.90;;;;;;4769251;29;20656;-81
2021/05/02 07:35:40;;;;;;;20.23;14.05;;;13.30;99.90;;;;;;4768543;30;20310;-81
2021/05/02 07:38:06;;;;;;;25.20;14.88;;;13.60;99.90;;;;;;4778196;29;20280;-84
2021/05/02 07:40:33;;;;;;;23.23;16.50;;;14.00;99.90;;;;;;4771379;29;20689;-84
2021/05/02 07:42:59;;;;;;;21.63;14.75;;;13.70;99.90;;;;;;4768379;30;20197;-85
2021/05/02 07:45:25;;;;;;;21.50;15.15;;;;;;;;;;4777027;29;20661;-86
2021/05/02 07:47:51;;;;;;;22.25;15.70;;;;;;;;;;4765910;30;20190;-81
2021/05/02 07:50:17;;;;;;;25.50;15.32;;;14.30;99.90;;;;;;4755334;30;20235;-82
2021/05/02 07:52:43;;;;;;;24.58;15.32;;;;;;;;;;4775655;30;20245;-84
2021/05/02 07:55:10;;;;;;;23.52;15.45;;;14.50;99.90;;;;;;4770513;30;20205;-81
2021/05/02 07:57:36;;;;;;;17.80;13.90;;;;;;;;;;4764876;30;20206;-81
2021/05/02 08:00:05;;;;;;;23.35;15.95;;;14.00;99.90;;;;;;4759202;30;20194;-82
2021/05/02 08:02:31;;;;;;;21.35;13.57;;;;;;;;;;4752326;30;20190;-81
2021/05/02 08:04:57;;;;;;;20.15;13.70;;;;;;;;;;4764828;30;20203;-82
2021/05/02 08:07:23;;;;;;;20.92;14.50;;;;;;;;;;4783408;29;20203;-82
2021/05/02 08:09:49;;;;;;;18.38;12.98;;;14.20;99.90;;;;;;4785848;29;20194;-81
2021/05/02 08:12:15;;;;;;;17.02;12.68;;;14.10;99.90;;;;;;4762667;29;20396;-81
2021/05/02 08:14:42;;;;;;;20.02;12.73;;;;;;;;;;4764180;30;20691;-81
2021/05/02 08:17:08;;;;;;;20.85;14.07;;;15.00;99.90;;;;;;4767452;30;20194;-81
2021/05/02 08:19:34;;;;;;;18.33;12.80;;;14.60;99.90;;;;;;4768833;30;20243;-81
2021/05/02 08:22:02;;;;;;;16.80;12.55;;;14.80;99.90;;;;;;4787359;29;20221;-80
2021/05/02 08:24:29;;;;;;;20.92;13.18;;;15.30;99.90;;;;;;4779195;29;20202;-79
2021/05/02 08:26:55;;;;;;;20.13;12.52;;;15.30;99.90;;;;;;4765335;30;20289;-79
2021/05/02 08:29:21;;;;;;;21.73;13.40;;;15.10;99.90;;;;;;4770584;30;20442;-82
2021/05/02 08:31:47;;;;;;;23.13;13.48;;;;;;;;;;4769177;30;20198;-80
2021/05/02 08:34:13;;;;;;;18.15;11.88;;;15.40;99.90;;;;;;4768709;30;20699;-81
2021/05/02 08:36:38;;;;;;;16.77;12.80;;;15.20;99.90;;;;;;4761368;30;20198;-80
2021/05/02 08:39:05;;;;;;;17.33;11.80;;;14.60;99.90;;;;;;4759374;30;20233;-78
2021/05/02 08:41:31;;;;;;;17.08;13.05;;;;;;;;;;4763462;30;20285;-81
2021/05/02 08:43:57;;;;;;;20.30;13.32;;;15.00;99.90;;;;;;4762452;30;20202;-79
2021/05/02 08:46:24;;;;;;;18.50;12.95;;;15.00;99.90;;;;;;4769835;30;20224;-79
2021/05/02 08:48:50;;;;;;;20.80;13.82;;;;;;;;;;4769157;29;20186;-80
2021/05/02 08:51:16;;;;;;;20.70;14.35;;;;;;;;;;4769130;30;20208;-81
2021/05/02 08:53:42;;;;;;;18.35;14.07;;;;;;;;;;4782616;29;20237;-82
2021/05/02 08:56:09;;;;;;;19.98;14.63;;;;;;;;;;4762586;29;20225;-83
2021/05/02 08:58:34;;;;;;;21.90;15.50;;;14.80;99.90;;;;;;4769217;30;20729;-80
2021/05/02 09:01:01;;;;;;;22.40;16.23;;;14.50;99.90;;;;;;4765977;30;20210;-81
2021/05/02 09:03:44;;;;;;;23.10;16.05;;;14.00;99.90;;;;;;4760639;30;20202;-78
2021/05/02 09:06:23;;;;;;;23.35;16.05;;;13.90;99.90;;;;;;4756910;30;20686;-78
2021/05/02 09:09:01;;;;;;;27.48;16.77;;;14.30;99.90;;;;;;4758358;30;20201;-86
2021/05/02 09:11:41;;;;;;;24.17;17.25;;;14.60;99.90;;;;;;4762792;30;20261;-79
2021/05/02 09:14:30;;;;;;;24.90;17.20;;;14.10;99.90;;;;;;4764808;29;20238;-81
2021/05/02 09:16:58;;;;;;;27.08;18.20;;;13.70;99.90;;;;;;4761415;30;20236;-83
2021/05/02 09:19:26;;;;;;;24.35;18.02;;;14.20;99.90;;;;;;4752987;30;20187;-80
2021/05/02 09:21:52;;;;;;;26.30;18.90;;;14.00;99.90;;;;;;4760013;30;20194;-83
2021/05/02 09:24:32;;;;;;;28.67;19.52;;;14.00;99.90;;;;;;4755514;30;20241;-80
2021/05/02 09:27:11;;;;;;;30.48;20.27;;;13.90;99.90;;;;;;4758326;30;20656;-79
2021/05/02 09:29:38;;;;;;;29.70;20.65;;;14.30;99.90;;;;;;4758444;30;20195;-78
2021/05/02 09:32:05;;;;;;;28.92;20.58;;;14.20;99.90;;;;;;4764236;30;20286;-80
2021/05/02 09:34:32;;;;;;;35.20;22.00;;;;;;;;;;4765640;30;20292;-81
2021/05/02 09:37:07;;;;;;;32.35;21.55;;;14.20;99.90;;;;;;4765457;30;20200;-81
2021/05/02 09:39:58;;;;;;;34.33;22.17;;;14.10;99.90;;;;;;4761990;29;20536;-80
2021/05/02 09:42:32;;;;;;;30.90;21.90;;;14.30;99.90;;;;;;4769722;30;20194;-81
2021/05/02 09:45:00;;;;;;;31.73;22.05;;;14.10;99.90;;;;;;4757894;30;20217;-86
2021/05/02 09:47:38;;;;;;;33.60;21.50;;;14.00;99.90;;;;;;4758753;30;20283;-81
2021/05/02 09:50:04;;;;;;;31.80;21.58;;;;;;;;;;4760128;29;20609;-80
2021/05/02 09:52:45;;;;;;;30.63;22.15;;;14.40;99.90;;;;;;4758601;30;20296;-80
2021/05/02 09:55:23;;;;;;;33.78;21.63;;;14.00;99.90;;;;;;4758772;30;20232;-80
2021/05/02 09:58:10;;;;;;;32.92;22.70;;;14.10;99.90;;;;;;4766739;30;20297;-81
2021/05/02 10:00:36;;;;;;;30.35;21.23;;;;;;;;;;4767973;29;20617;-80
2021/05/02 10:03:06;;;;;;;29.48;20.80;;;14.10;99.90;;;;;;4760587;30;20210;-81
2021/05/02 10:05:34;;;;;;;33.47;21.42;;;;;;;;;;4764897;30;20302;-82
2021/05/02 10:08:00;;;;;;;33.20;22.52;;;14.20;99.90;;;;;;4782113;29;20284;-82
2021/05/02 10:10:25;;;;;;;37.25;24.02;;;13.80;99.90;;;;;;4749600;29;20190;-81
2021/05/02 10:12:53;;;;;;;38.05;21.63;;;14.10;99.90;;;;;;4762735;30;20249;-82
2021/05/02 10:15:20;;;;;;;35.00;23.65;;;14.10;99.90;;;;;;4754042;30;20224;-82
2021/05/02 10:17:51;;;;;;;33.50;23.10;;;14.20;99.90;;;;;;4757363;30;20227;-82
2021/05/02 10:20:19;;;;;;;34.40;23.00;;;14.10;99.90;;;;;;4770399;29;20276;-82
2021/05/02 10:22:45;;;;;;;38.15;23.38;;;14.00;99.90;;;;;;4758376;30;20747;-80
2021/05/02 10:25:13;;;;;;;41.35;24.38;;;13.70;99.90;;;;;;4767477;30;20285;-81
2021/05/02 10:27:48;;;;;;;35.30;23.60;;;14.00;99.90;;;;;;4757398;30;20198;-80
2021/05/02 10:30:23;;;;;;;33.80;23.13;;;14.20;99.90;;;;;;4767353;30;20193;-78
2021/05/02 10:33:00;;;;;;;35.85;21.67;;;13.90;99.90;;;;;;4766827;30;20233;-78
2021/05/02 10:35:44;;;;;;;34.90;22.85;;;13.90;99.90;;;;;;4751755;30;20186;-80
2021/05/02 10:38:10;;;;;;;38.28;23.08;;;13.40;99.90;;;;;;4767460;30;20201;-78
2021/05/02 10:40:37;;;;;;;34.53;22.27;;;13.70;99.90;;;;;;4760757;30;20536;-80
2021/05/02 10:43:08;;;;;;;37.30;23.80;;;13.60;99.90;;;;;;4762772;30;20233;-85
2021/05/02 10:45:34;;;;;;;38.25;23.30;;;13.80;99.90;;;;;;4765669;30;20236;-78
2021/05/02 10:48:02;;;;;;;39.80;23.38;;;13.50;99.90;;;;;;4767481;30;20194;-80
2021/05/02 10:50:40;;;;;;;33.05;20.98;;;13.30;99.90;;;;;;4768393;30;20210;-77
2021/05/02 10:53:13;;;;;;;32.17;20.80;;;13.50;99.90;;;;;;4770728;30;20279;-81
2021/05/02 10:55:55;;;;;;;38.45;22.20;;;13.70;99.90;;;;;;4764135;30;20688;-78
2021/05/02 10:58:31;;;;;;;35.72;22.77;;;13.80;99.90;;;;;;4770467;30;20194;-78
2021/05/02 11:01:04;;;;;;;36.65;23.60;;;13.70;99.90;;;;;;4763870;30;20204;-77
2021/05/02 11:03:38;;;;;;;38.60;23.30;;;13.80;99.90;;;;;;4765115;30;20195;-78
2021/05/02 11:06:09;;;;;;;39.42;24.05;;;13.60;99.90;;;;;;4766671;30;20194;-78
2021/05/02 11:08:50;;;;;;;39.30;24.30;;;13.60;99.90;;;;;;4765700;30;20191;-80
2021/05/02 11:11:31;;;;;;;38.40;24.35;;;13.90;99.90;;;;;;4766817;30;20340;-79
2021/05/02 11:14:10;;;;;;;41.58;26.60;;;13.50;99.90;;;;;;4768637;30;20421;-78
2021/05/02 11:16:43;;;;;;;43.72;27.77;;;13.70;99.90;;;;;;4769310;29;20552;-78
2021/05/02 11:19:24;;;;;;;49.17;30.88;;;13.70;99.90;;;;;;4770500;30;20278;-79
2021/05/02 11:21:51;;;;;;;45.05;26.55;;;;;;;;;;4764021;30;20198;-79
2021/05/02 11:24:18;;;;;;;45.35;26.65;;;14.00;99.90;;;;;;4777469;29;20194;-79
2021/05/02 11:29:32;;;;;;;49.50;27.75;;;14.20;99.90;;;;;;4761404;30;20189;-79
2021/05/02 11:31:58;;;;;;;45.17;27.95;;;;;;;;;;4768871;30;20254;-79
2021/05/02 11:34:24;;;;;;;45.13;26.27;;;;;;;;;;4780292;29;20202;-82
2021/05/02 11:36:50;;;;;;;40.03;24.40;;;;;;;;;;4768316;30;20218;-77
2021/05/02 11:39:28;;;;;;;34.35;23.90;;;14.50;99.90;;;;;;4764414;30;20204;-79
2021/05/02 11:42:05;;;;;;;39.53;25.70;;;14.60;99.90;;;;;;4762565;30;20273;-79
2021/05/02 11:44:33;;;;;;;42.90;24.42;;;14.90;99.90;;;;;;4764693;30;21095;-80
2021/05/02 11:47:17;;;;;;;36.28;22.95;;;15.00;99.90;;;;;;4763393;30;20688;-81
2021/05/02 11:49:43;;;;;;;36.72;22.40;;;;;;;;;;4763433;30;20190;-80
2021/05/02 11:52:09;;;;;;;34.53;22.45;;;15.00;99.90;;;;;;4764532;30;20219;-81
2021/05/02 11:54:36;;;;;;;40.28;22.58;;;;;;;;;;4765078;30;20652;-80
2021/05/02 11:57:01;;;;;;;33.78;20.92;;;15.30;99.90;;;;;;4768526;30;20198;-80
2021/05/02 11:59:27;;;;;;;30.45;20.58;;;;;;;;;;4768056;30;20562;-79
2021/05/02 12:01:53;;;;;;;32.80;20.27;;;15.80;99.90;;;;;;4769547;30;20194;-79
2021/05/02 12:04:22;;;;;;;32.75;18.67;;;15.60;99.90;;;;;;4768974;30;20198;-80
2021/05/02 12:06:53;;;;;;;30.73;18.08;;;15.40;99.90;;;;;;4769245;29;20220;-81
2021/05/02 12:09:21;;;;;;;29.25;19.98;;;15.60;99.90;;;;;;4762622;30;20191;-81
2021/05/02 12:12:06;;;;;;;36.08;19.35;;;15.60;99.90;;;;;;4754072;30;20238;-81
2021/05/02 12:14:33;;;;;;;30.67;19.50;;;;;;;;;;4769272;30;20209;-80
2021/05/02 12:17:00;;;;;;;33.95;20.95;;;15.90;99.90;;;;;;4765743;30;20194;-79
2021/05/02 12:19:27;;;;;;;35.83;22.35;;;15.90;99.90;;;;;;4759329;30;20688;-82
2021/05/02 12:21:54;;;;;;;36.47;23.20;;;16.10;99.90;;;;;;4761733;30;20199;-80
2021/05/02 12:24:27;;;;;;;32.90;22.25;;;15.90;99.90;;;;;;4761244;30;20603;-80
2021/05/02 12:27:01;;;;;;;37.25;23.25;;;16.00;99.90;;;;;;4763503;30;20336;-80
2021/05/02 12:29:27;;;;;;;36.20;22.23;;;;;;;;;;4782638;29;20198;-79
2021/05/02 12:31:54;;;;;;;41.13;21.73;;;16.40;99.90;;;;;;4768888;29;20281;-82
2021/05/02 12:34:28;;;;;;;31.15;19.70;;;16.30;99.90;;;;;;4765581;30;20572;-79
2021/05/02 12:36:56;;;;;;;35.08;19.70;;;16.40;99.90;;;;;;4759658;30;20661;-81
2021/05/02 12:39:31;;;;;;;32.97;20.88;;;16.20;99.90;;;;;;4776835;30;20223;-80
2021/05/02 12:41:57;;;;;;;34.33;19.95;;;16.10;99.90;;;;;;4765702;30;20199;-79
2021/05/02 12:44:25;;;;;;;35.47;20.05;;;16.10;99.90;;;;;;4766013;30;20198;-79
2021/05/02 12:46:53;;;;;;;30.80;20.38;;;16.40;99.90;;;;;;4755201;30;20688;-78
2021/05/02 12:49:19;;;;;;;34.33;19.73;;;;;;;;;;4760811;30;20189;-86
2021/05/02 12:51:49;;;;;;;34.85;20.65;;;16.50;99.90;;;;;;4765989;30;20229;-80
2021/05/02 12:54:19;;;;;;;30.25;17.60;;;16.30;99.90;;;;;;4779252;29;20280;-79
2021/05/02 12:56:58;;;;;;;25.52;15.57;;;16.80;99.90;;;;;;4751630;29;20201;-79
2021/05/02 12:59:27;;;;;;;21.02;14.50;;;16.90;99.90;;;;;;4757523;30;20238;-81
2021/05/02 13:02:24;;;;;;;32.38;15.38;;;16.70;99.90;;;;;;4759005;30;20728;-78